Low temp

Not for real navigation. The accuracy of this data is not assured See disclaimer for more information



ICAO NAME COUNTRY WIND Kt GUST Kt VIS m TEMP/DEW C BARO METAR
FDBB 6 0 9999 -38/-51 29.94 FDBB 222000Z AUTO 19006KT //// // ////// M38/M51 Q1014
SKSM Santa Marta / Simon Bolivar Colombia 0 0 9999 -29/26 29.89 SKSM 222000Z 00000KT 9999 FEW020TCU SCT070 M29/26 A2989 REDZ RMK TCU/E
CWEU Eureka, N. W. T. Canada 8 0 11200 -8/-9 29.62 CWEU 222000Z 28008KT 7SM SCT005 OVC018 M08/M09 A2962 RMK ST3SC5 SLP034
CXRB 7 0 9999 -6/-8 29.92 CXRB 222000Z AUTO 34007KT M06/M08 RMK AO1 SLP019 T10571079 56006
CZRP 14 0 9999 -6/-8 29.92 CZRP 222000Z AUTO 32014KT M06/M08 RMK AO1 PK WND 32019/1941 SLP076 T10581076 58008

Show more